Latest Weather Observations for Cowra

IDN60801

Issued at 9:03 pm EDT Sunday 22 October 2017 (issued every 30 minutes, with the page automatically refreshed every 10 minutes)

About weather observations | Map of weather stations | Latest weather observations for NSW | Other Formats
Station Details ID: 065111 Name: COWRA AIRPORT AWS Lat: -33.84 Lon: 148.65 Height: 300.4 m
Data from the previous 72 hours. | See also: Recent months at Cowra
Date/Time
EDT
Temp
°C
App
Temp
°C
Dew
Point
°C
Rel
Hum
%
Delta-T
°C
Wind Press
QNH
hPa
Press
MSL
hPa
Rain since
9am
mm
Dir  Spd
km/h
Gust
km/h
Spd
kts
Gust
kts
22/09:00pm 15.8 13.1 9.0 64 3.5 SSW 13 17 7 9 1014.5 1014.0 0.2
22/08:30pm 16.5 15.2 10.1 66 3.4 WSW 7 13 4 7 1014.0 1013.5 0.2
22/08:00pm 18.1 15.1 7.8 51 5.3 SW 13 17 7 9 1013.7 1013.2 0.0
22/07:30pm 18.5 15.5 7.9 50 5.5 SW 13 17 7 9 1013.2 1012.8 0.0
22/07:00pm 19.8 17.4 6.9 43 6.6 SSW 9 13 5 7 1012.8 1012.4 0.0
22/06:30pm 18.4 15.8 7.8 50 5.5 SW 11 13 6 7 1012.5 1012.1 0.0
22/06:00pm 19.7 15.8 5.4 39 7.1 SW 15 17 8 9 1012.3 1011.8 0.0
22/05:30pm 20.6 16.9 4.2 34 8.0 SW 13 20 7 11 1012.2 1011.7 0.0
22/05:00pm 21.5 17.7 4.1 32 8.6 WSW 13 20 7 11 1012.0 1011.5 0.0
22/04:30pm 21.7 18.4 4.3 32 8.6 WSW 11 20 6 11 1012.3 1011.8 0.0
22/04:00pm 21.1 15.3 -0.2 24 9.6 SW 20 30 11 16 1012.5 1012.1 0.0
22/03:30pm 20.6 16.6 2.9 31 8.5 SW 13 22 7 12 1012.6 1012.2 0.0
22/03:00pm 20.5 17.1 4.1 34 8.0 SW 11 24 6 13 1012.8 1012.4 0.0
22/02:30pm 19.7 16.3 6.1 41 6.9 NW 13 20 7 11 1013.0 1012.6 0.0
22/02:00pm 20.2 17.4 6.9 42 6.8 NNW 11 17 6 9 1013.8 1013.3 0.0
22/01:30pm 19.5 17.5 6.9 44 6.5 W 7 13 4 7 1014.0 1013.5 0.0
22/01:00pm 18.2 14.5 6.1 45 6.0 NNW 15 22 8 12 1014.2 1013.7 0.0
22/12:30pm 18.2 14.8 7.6 50 5.5 NNW 15 26 8 14 1014.3 1013.8 0.0
22/12:00pm 17.6 14.3 7.9 53 5.0 NNW 15 22 8 12 1014.6 1014.1 0.0
22/11:30am 16.8 13.0 7.4 54 4.8 NNW 17 24 9 13 1014.9 1014.4 0.0
22/11:00am 15.8 12.5 6.5 54 4.6 NNW 13 20 7 11 1015.1 1014.6 0.0
22/10:30am 15.1 11.8 7.9 62 3.7 NNW 15 19 8 10 1015.3 1014.9 0.0
22/10:00am 14.4 11.7 8.8 69 2.9 NW 13 17 7 9 1015.4 1015.0 0.0
22/09:30am 13.0 11.0 8.5 74 2.3 N 9 17 5 9 1015.7 1015.3 0.0
22/09:00am 12.4 11.2 8.1 75 2.1 NNE 4 13 2 7 1015.7 1015.3 0.0
22/08:30am 11.6 11.0 7.3 75 2.1 CALM 0 6 0 3 1015.7 1015.3 0.0
22/08:00am 10.9 9.3 7.8 81 1.5 S 6 7 3 4 1015.5 1015.1 0.0
22/07:30am 9.7 7.9 7.8 88 0.9 SSW 7 9 4 5 1015.2 1014.7 0.0
22/07:00am 8.0 6.1 7.4 96 0.3 SSE 7 13 4 7 1015.0 1014.5 0.0
22/06:30am 7.0 5.7 6.1 94 0.4 ENE 2 7 1 4 1014.9 1014.4 0.0
22/06:00am 7.7 7.0 7.0 95 0.3 CALM 0 0 0 0 1014.6 1014.1 0.0
22/05:30am 7.7 7.0 6.8 94 0.4 CALM 0 0 0 0 1014.7 1014.2 0.0
22/05:00am 7.8 7.0 6.7 93 0.5 CALM 0 0 0 0 1014.7 1014.2 0.0
22/04:30am 7.6 6.7 6.1 90 0.7 CALM 0 0 0 0 1014.6 1014.1 0.0
22/04:00am 8.3 7.5 6.6 89 0.8 CALM 0 0 0 0 1014.6 1014.1 0.0
22/03:30am 8.9 7.1 7.0 88 0.9 E 6 9 3 5 1014.6 1014.1 0.0
22/03:00am 9.0 7.1 7.5 90 0.7 E 7 9 4 5 1014.9 1014.4 0.0
22/02:30am 10.2 9.6 7.3 82 1.4 CALM 0 0 0 0 1015.1 1014.6 0.0
22/02:00am 9.6 8.8 8.0 90 0.8 SE 2 7 1 4 1015.4 1015.0 0.0
22/01:30am 9.8 9.3 7.7 87 1.0 CALM 0 0 0 0 1015.6 1015.2 0.0
22/01:00am 10.4 8.8 8.2 86 1.1 E 6 7 3 4 1015.8 1015.4 0.0
22/12:30am 9.8 9.2 7.4 85 1.2 CALM 0 0 0 0 1016.0 1015.6 0.0
22/12:00am 12.0 10.2 7.9 76 2.0 ESE 7 9 4 5 1016.1 1015.7 0.0
 
Date/Time
EDT
Temp
°C
App
Temp
°C
Dew
Point
°C
Rel
Hum
%
Delta-T
°C
Wind Press
QNH
hPa
Press
MSL
hPa
Rain since
9am
mm
Dir  Spd
km/h
Gust
km/h
Spd
kts
Gust
kts
21/11:30pm 12.8 11.1 8.5 75 2.2 E 7 9 4 5 1016.3 1015.9 0.0
21/11:00pm 13.1 12.7 8.4 73 2.4 CALM 0 0 0 0 1016.5 1016.1 0.0
21/10:30pm 13.2 12.8 8.3 72 2.5 CALM 0 0 0 0 1016.6 1016.2 0.0
21/10:00pm 14.3 12.8 8.3 67 3.0 SSW 6 7 3 4 1016.7 1016.3 0.0
21/09:30pm 14.9 13.3 7.9 63 3.5 SSW 6 7 3 4 1016.8 1016.4 0.0
21/09:00pm 15.2 14.8 8.2 63 3.6 CALM 0 0 0 0 1016.7 1016.3 0.0
21/08:30pm 15.7 13.8 7.7 59 4.1 SW 7 7 4 4 1016.6 1016.2 0.0
21/08:00pm 16.8 14.9 7.7 55 4.6 S 7 7 4 4 1016.6 1016.2 0.0
21/07:30pm 17.0 14.7 7.4 53 4.9 SSW 9 11 5 6 1016.5 1016.1 0.0
21/07:00pm 19.2 16.3 6.3 43 6.5 SSW 11 15 6 8 1016.3 1015.9 0.0
21/06:30pm 20.6 16.2 5.0 36 7.8 SW 17 20 9 11 1016.2 1015.8 0.0
21/06:00pm 21.5 18.0 5.4 35 8.1 SW 13 20 7 11 1016.2 1015.8 0.0
21/05:30pm 21.5 16.8 3.2 30 8.8 SSW 17 24 9 13 1016.3 1015.9 0.0
21/05:00pm 22.2 17.8 2.8 28 9.3 SW 15 26 8 14 1016.4 1016.0 0.0
21/04:30pm 21.9 17.7 3.6 30 8.9 SW 15 22 8 12 1016.7 1016.3 0.0
21/04:00pm 21.8 18.0 3.9 31 8.8 SW 13 20 7 11 1017.1 1016.6 0.0
21/03:30pm 21.4 18.1 2.2 28 9.1 S 9 17 5 9 1017.4 1016.9 0.0
21/03:00pm 21.3 18.2 3.5 31 8.6 SSE 9 20 5 11 1017.9 1017.4 0.0
21/02:30pm 21.4 18.5 4.5 33 8.4 SE 9 17 5 9 1018.3 1017.9 0.0
21/02:00pm 20.9 17.0 5.3 36 7.8 S 15 22 8 12 1018.8 1018.4 0.0
21/01:30pm 20.5 16.1 4.9 36 7.7 S 17 24 9 13 1019.2 1018.8 0.0
21/01:00pm 19.6 15.2 4.9 38 7.2 SSE 17 28 9 15 1019.6 1019.2 0.0
21/12:30pm 18.9 14.7 5.7 42 6.6 SSE 17 26 9 14 1020.0 1019.6 0.0
21/12:00pm 19.0 16.1 8.1 49 5.7 S 13 20 7 11 1020.6 1020.1 0.0
21/11:30am 17.7 14.5 8.3 54 4.9 S 15 22 8 12 1020.9 1020.4 0.0
21/11:00am 16.8 13.9 8.2 57 4.4 SE 13 19 7 10 1021.2 1020.8 0.0
21/10:30am 16.1 12.7 7.8 58 4.2 SE 15 22 8 12 1021.5 1021.1 0.0
21/10:00am 16.4 13.2 8.6 60 4.0 SE 15 26 8 14 1021.5 1021.1 0.0
21/09:30am 15.1 11.7 7.6 61 3.8 SE 15 24 8 13 1021.6 1021.2 0.0
21/09:00am 14.6 11.3 7.9 64 3.4 ESE 15 22 8 12 1021.5 1021.1 0.2
21/08:30am 13.7 9.9 7.5 66 3.1 SE 17 28 9 15 1021.6 1021.2 0.2
21/08:00am 12.9 10.4 8.4 74 2.3 SSE 11 17 6 9 1021.6 1021.2 0.2
21/07:30am 10.8 8.8 8.6 86 1.1 SSW 9 11 5 6 1021.6 1021.2 0.2
21/07:00am 9.2 6.9 7.6 90 0.8 SSW 9 9 5 5 1021.4 1021.0 0.2
21/06:30am 9.0 6.2 7.1 88 0.9 S 11 11 6 6 1021.3 1020.9 0.2
21/06:00am 9.3 7.3 6.9 85 1.1 S 7 11 4 6 1021.3 1020.9 0.2
21/05:30am 10.1 7.7 7.2 82 1.4 SSE 9 11 5 6 1021.3 1020.9 0.2
21/05:00am 11.0 8.7 7.3 78 1.8 SSE 9 13 5 7 1021.5 1021.1 0.2
21/04:30am 11.5 8.9 7.8 78 1.8 SSE 11 15 6 8 1021.4 1021.0 0.2
21/04:00am 11.9 9.4 8.2 78 1.8 SSE 11 17 6 9 1021.4 1021.0 0.2
21/03:30am 12.1 9.6 8.4 78 1.9 SSE 11 15 6 8 1021.6 1021.2 0.2
21/03:00am 12.5 10.4 8.4 76 2.1 SE 9 13 5 7 1021.7 1021.3 0.2
21/02:30am 13.1 10.6 8.4 73 2.4 SE 11 19 6 10 1021.9 1021.5 0.2
21/02:00am 13.5 11.1 8.6 72 2.5 SE 11 15 6 8 1022.2 1021.8 0.2
21/01:30am 13.7 10.9 8.7 72 2.6 SE 13 20 7 11 1022.1 1021.7 0.2
21/01:00am 13.8 11.1 8.8 72 2.6 SE 13 20 7 11 1022.2 1021.8 0.2
21/12:30am 14.0 11.4 9.2 73 2.5 SE 13 22 7 12 1022.3 1021.9 0.2
21/12:00am 14.3 11.7 9.3 72 2.6 SE 13 20 7 11 1022.4 1022.0 0.2
 
Date/Time
EDT
Temp
°C
App
Temp
°C
Dew
Point
°C
Rel
Hum
%
Delta-T
°C
Wind Press
QNH
hPa
Press
MSL
hPa
Rain since
9am
mm
Dir  Spd
km/h
Gust
km/h
Spd
kts
Gust
kts
20/11:30pm 14.6 12.0 9.4 71 2.7 SE 13 20 7 11 1022.2 1021.8 0.2
20/11:00pm 15.0 13.0 10.0 72 2.6 SE 11 17 6 9 1022.3 1021.9 0.2
20/10:30pm 15.0 12.6 10.0 72 2.6 ESE 13 17 7 9 1021.9 1021.5 0.2
20/10:00pm 15.2 12.5 10.2 72 2.6 SE 15 24 8 13 1021.8 1021.4 0.2
20/09:30pm 15.5 11.9 10.5 72 2.7 SE 20 32 11 17 1021.5 1021.1 0.2
20/09:00pm 16.0 12.5 11.0 72 2.7 SE 20 30 11 16 1021.2 1020.8 0.2
20/08:30pm 17.4 15.8 12.9 75 2.5 ESE 13 20 7 11 1020.7 1020.2 0.2
20/08:00pm 18.1 15.1 10.5 61 4.1 SSW 17 24 9 13 1019.8 1019.4 0.2
20/07:30pm 18.4 15.8 9.5 56 4.8 SW 13 15 7 8 1019.2 1018.8 0.2
20/07:00pm 21.1 17.9 10.0 49 6.1 SW 17 22 9 12 1018.8 1018.4 0.2
20/06:30pm 22.3 18.6 10.1 46 6.7 SW 20 26 11 14 1018.7 1018.3 0.2
20/06:00pm 22.0 19.1 11.1 50 6.1 SW 17 22 9 12 1018.5 1018.1 0.2
20/05:30pm 21.9 18.0 12.2 54 5.5 WSW 24 30 13 16 1018.4 1018.0 0.2
20/05:00pm 22.2 18.6 14.1 60 4.8 WSW 26 35 14 19 1018.2 1017.8 0.2
20/04:30pm 21.6 18.0 15.2 67 3.8 WSW 28 39 15 21 1018.0 1017.5 0.2
20/04:00pm 21.2 18.1 15.7 71 3.3 WSW 26 33 14 18 1018.1 1017.6 0.2
20/03:30pm 21.8 18.3 16.5 72 3.3 WSW 30 35 16 19 1018.4 1018.0 0.2
20/03:00pm 22.7 19.3 17.6 73 3.2 SW 32 39 17 21 1018.3 1017.9 0.2
20/02:30pm 22.4 19.4 16.7 70 3.5 WSW 28 33 15 18 1018.6 1018.2 0.2
20/02:00pm 23.2 21.3 16.7 67 4.0 WSW 22 30 12 16 1018.8 1018.4 0.2
20/01:30pm 23.1 22.8 17.3 70 3.6 WSW 15 22 8 12 1019.2 1018.8 0.2
20/01:00pm 22.3 22.4 16.6 70 3.5 SW 11 22 6 12 1019.2 1018.8 0.2
20/12:30pm 21.9 22.0 16.4 71 3.4 SW 11 17 6 9 1019.4 1019.0 0.2
20/12:00pm 21.1 21.0 16.9 77 2.6 SSW 13 17 7 9 1019.8 1019.4 0.2
20/11:30am 21.1 21.6 16.5 75 2.8 S 9 15 5 8 1019.9 1019.5 0.2
20/11:00am 20.7 21.8 18.1 85 1.6 SSW 9 13 5 7 1020.1 1019.7 0.2
20/10:30am 19.6 20.3 18.9 96 0.4 SSW 13 15 7 8 1020.5 1020.0 0.2
20/10:00am 18.8 20.2 18.6 99 0.1 SSW 9 13 5 7 1020.2 1019.8 0.2
20/09:30am 18.3 18.6 17.8 97 0.3 SSW 13 17 7 9 1020.3 1019.9 0.0
20/09:00am 18.3 19.8 18.1 99 0.1 SSW 7 11 4 6 1020.0 1019.6 21.4
20/08:30am 18.4 19.6 18.2 99 0.1 S 9 11 5 6 1019.6 1019.2 21.2
20/08:00am 18.2 20.7 18.2 100 0.0 SSE 2 9 1 5 1019.7 1019.3 21.2
20/07:30am 17.9 20.7 17.9 100 0.0 CALM 0 0 0 0 1019.5 1019.1 21.2
20/07:00am 17.9 18.6 17.9 100 0.0 SW 11 15 6 8 1019.4 1019.0 21.2
20/06:30am 17.7 20.3 17.5 99 0.1 CALM 0 0 0 0 1018.7 1018.3 20.8
20/06:00am 17.8 20.4 17.6 99 0.1 CALM 0 0 0 0 1018.6 1018.2 20.8
20/05:30am 17.8 19.1 17.6 99 0.1 SSW 7 9 4 5 1018.7 1018.3 20.8
20/05:00am 18.0 19.1 18.0 100 0.0 E 9 11 5 6 1018.3 1017.9 20.8
20/04:30am 18.1 19.8 18.1 100 0.0 ESE 6 11 3 6 1018.5 1018.1 20.8
20/04:00am 18.1 19.2 18.1 100 0.0 ENE 9 11 5 6 1018.8 1018.4 18.8
20/03:30am 18.1 20.2 18.1 100 0.0 ESE 4 7 2 4 1019.2 1018.8 17.2
20/03:00am 18.1 19.2 18.1 100 0.0 ENE 9 9 5 5 1019.7 1019.3 15.6
20/02:30am 18.2 19.8 18.2 100 0.0 ESE 7 9 4 5 1019.9 1019.5 12.6
20/02:00am 18.2 18.9 18.0 99 0.1 S 11 15 6 8 1020.3 1019.9 8.2
20/01:30am 18.3 18.7 18.1 99 0.1 S 13 15 7 8 1020.6 1020.1 4.4
20/01:00am 18.7 19.5 18.2 97 0.3 S 11 15 6 8 1020.8 1020.3 2.4
20/12:30am 18.7 20.6 18.5 99 0.1 E 6 11 3 6 1020.7 1020.2 2.4
20/12:00am 18.7 20.8 18.2 97 0.3 ESE 4 7 2 4 1020.9 1020.4 2.4
 
Date/Time
EDT
Temp
°C
App
Temp
°C
Dew
Point
°C
Rel
Hum
%
Delta-T
°C
Wind Press
QNH
hPa
Press
MSL
hPa
Rain since
9am
mm
Dir  Spd
km/h
Gust
km/h
Spd
kts
Gust
kts
19/11:30pm 18.6 20.1 18.1 97 0.3 SSW 7 9 4 5 1020.9 1020.4 2.4
19/11:00pm 18.8 19.8 17.8 94 0.6 SW 9 9 5 5 1021.0 1020.6 1.6
19/10:30pm 19.3 20.4 17.1 87 1.4 SSW 7 11 4 6 1020.8 1020.3 0.0
19/10:00pm 20.5 19.9 16.7 79 2.3 S 15 20 8 11 1020.3 1019.9 0.0
19/09:30pm 21.0 19.1 15.8 72 3.1 SSW 20 26 11 14 1020.2 1019.8 0.0

Other Formats:

Comma delimited format used in spreadsheet applications
http://www.bom.gov.au/fwo/IDN60801/IDN60801.95721.axf

JavaScript Object Notation format (JSON) in row-major order
http://www.bom.gov.au/fwo/IDN60801/IDN60801.95721.json